Xi'an, China
Current Conditions -  °F | °C
As of 7:00 AM on Thursday 18 Dec 2014 (Local Time) from ZLXY Reporting Station
Haze Haze  
Wind Chill: 18°   Ceiling: Unl
Heat Index: 18°   Visibility: 2.5mi
Dew Point: 14°   Wind: 2mph
Humidity: 86%   Direction: 280°W
Pressure: 30.42"   Gusts: NA
Location:  34.3°N, 108.93°E
Report Text: ZLXY 172300Z 28001MPS 4000 BR NSC M08/M10 Q1030 NOSIG
Loading
Personal Weather Stations






























Interactive Weather Map New forecast layout! Learn more

10-Day Weather Forecast

Advertisements
Track Severe Weather on mobile